Time;durP1;ratioP1;P1;durP2;ratioP2;P2;SDS_P1;SDS_P2;PMS_P1;PMS_P2;Temp;Humidity;BMP_temperature;BMP_pressure;BME280_temperature;BME280_humidity;BME280_pressure;Samples;Min_cycle;Max_cycle;Signal;HPM_P1;HPM_P2
2023/05/17 00:02:01;;;;;;;11.07;8.23;;;10.80;99.90;;;;;;5061591;28;20071;-77
2023/05/17 00:04:27;;;;;;;13.93;8.55;;;10.80;99.90;;;;;;5063220;28;20027;-77
2023/05/17 00:06:52;;;;;;;15.88;9.32;;;10.80;99.90;;;;;;5063421;28;20471;-77
2023/05/17 00:09:18;;;;;;;13.32;8.13;;;10.80;99.90;;;;;;5063584;28;20025;-77
2023/05/17 00:11:44;;;;;;;11.88;7.70;;;10.70;99.90;;;;;;5061653;28;20025;-77
2023/05/17 00:14:10;;;;;;;12.82;7.93;;;10.70;99.90;;;;;;5061958;28;20055;-77
2023/05/17 00:16:36;;;;;;;11.13;7.93;;;10.70;99.90;;;;;;5063920;28;20055;-77
2023/05/17 00:19:02;;;;;;;11.25;7.50;;;10.70;99.90;;;;;;5062190;28;20079;-77
2023/05/17 00:21:27;;;;;;;10.48;7.18;;;10.60;99.90;;;;;;5063515;28;20020;-77
2023/05/17 00:23:53;;;;;;;13.38;8.43;;;10.60;99.90;;;;;;5063870;28;20203;-78
2023/05/17 00:26:19;;;;;;;10.85;7.20;;;10.60;99.90;;;;;;5064409;28;20084;-77
2023/05/17 00:28:44;;;;;;;10.23;7.43;;;10.60;99.90;;;;;;5062436;28;20029;-77
2023/05/17 00:31:10;;;;;;;10.90;6.93;;;10.60;99.90;;;;;;5062557;28;20092;-77
2023/05/17 00:33:36;;;;;;;11.50;7.35;;;10.60;99.90;;;;;;5063952;28;20155;-77
2023/05/17 00:36:01;;;;;;;10.13;6.75;;;10.60;99.90;;;;;;5064570;28;20117;-77
2023/05/17 00:38:27;;;;;;;10.68;6.88;;;10.60;99.90;;;;;;5065492;28;20029;-77
2023/05/17 00:40:53;;;;;;;7.60;5.55;;;10.60;99.90;;;;;;5063622;28;20337;-77
2023/05/17 00:43:19;;;;;;;11.27;5.90;;;10.60;99.90;;;;;;5062940;28;20425;-77
2023/05/17 00:45:47;;;;;;;8.60;5.85;;;10.60;99.90;;;;;;5063879;28;20035;-77
2023/05/17 00:48:13;;;;;;;9.18;6.32;;;10.50;99.90;;;;;;5062469;28;20028;-78
2023/05/17 00:50:38;;;;;;;9.70;7.10;;;10.50;99.90;;;;;;5063755;28;20029;-77
2023/05/17 00:53:04;;;;;;;9.75;6.40;;;10.50;99.90;;;;;;5063996;28;20032;-77
2023/05/17 00:55:30;;;;;;;10.20;6.05;;;10.50;99.90;;;;;;5063593;28;20064;-77
2023/05/17 00:57:55;;;;;;;7.70;5.80;;;10.50;99.90;;;;;;5062428;28;20094;-77
2023/05/17 01:00:21;;;;;;;9.40;6.07;;;10.50;99.90;;;;;;5062381;28;20088;-77
2023/05/17 01:02:47;;;;;;;6.25;5.13;;;10.40;99.90;;;;;;5062124;28;20025;-77
2023/05/17 01:05:14;;;;;;;8.40;6.10;;;10.40;99.90;;;;;;5062927;28;20028;-77
2023/05/17 01:07:39;;;;;;;8.75;5.88;;;10.40;99.90;;;;;;5063385;28;20017;-77
2023/05/17 01:10:06;;;;;;;8.07;5.78;;;10.40;99.90;;;;;;5061999;28;20017;-77
2023/05/17 01:12:42;;;;;;;8.85;6.18;;;10.40;99.90;;;;;;5061262;28;20360;-77
2023/05/17 01:15:10;;;;;;;9.80;6.43;;;10.40;99.90;;;;;;5061870;28;20063;-77
2023/05/17 01:17:58;;;;;;;8.45;5.60;;;10.40;99.90;;;;;;5062669;28;20031;-78
2023/05/17 01:20:40;;;;;;;6.68;5.05;;;10.30;99.90;;;;;;5062950;28;20025;-77
2023/05/17 01:23:33;;;;;;;6.63;5.03;;;10.30;99.90;;;;;;5062157;28;20025;-78
2023/05/17 01:26:08;;;;;;;7.50;4.90;;;10.30;99.90;;;;;;5063746;28;20029;-77
2023/05/17 01:28:37;;;;;;;7.75;4.68;;;10.30;99.90;;;;;;5061656;28;20017;-77
2023/05/17 01:31:03;;;;;;;7.00;4.88;;;10.30;99.90;;;;;;5063055;28;20456;-78
2023/05/17 01:33:29;;;;;;;5.85;4.32;;;10.30;99.90;;;;;;5062721;28;20032;-78
2023/05/17 01:35:55;;;;;;;6.20;4.90;;;10.30;99.90;;;;;;5062993;28;20361;-78
2023/05/17 01:38:21;;;;;;;6.13;4.60;;;10.30;99.90;;;;;;5063064;28;20021;-77
2023/05/17 01:41:01;;;;;;;6.88;4.90;;;10.20;99.90;;;;;;5061147;28;20035;-78
2023/05/17 01:43:45;;;;;;;6.75;4.60;;;10.20;99.90;;;;;;5061721;28;20021;-77
2023/05/17 01:46:26;;;;;;;6.57;4.88;;;10.20;99.90;;;;;;5062349;28;20055;-77
2023/05/17 01:49:10;;;;;;;8.30;4.47;;;10.20;99.90;;;;;;5059890;28;20047;-77
2023/05/17 01:51:48;;;;;;;5.82;4.53;;;10.20;99.90;;;;;;5062871;28;20050;-77
2023/05/17 01:54:19;;;;;;;6.07;4.07;;;10.10;99.90;;;;;;5063725;28;20088;-77
2023/05/17 01:56:54;;;;;;;6.22;3.92;;;10.20;99.90;;;;;;5063883;28;20065;-77
2023/05/17 01:59:24;;;;;;;5.85;4.18;;;10.10;99.90;;;;;;5063381;28;20100;-78
2023/05/17 02:01:54;;;;;;;6.35;4.28;;;10.10;99.90;;;;;;5062302;28;20056;-78
2023/05/17 02:04:20;;;;;;;5.35;4.53;;;10.10;99.90;;;;;;5062911;28;20051;-78
2023/05/17 02:06:46;;;;;;;5.90;4.43;;;10.10;99.90;;;;;;5063666;28;20021;-78
2023/05/17 02:09:11;;;;;;;6.20;4.18;;;10.10;99.90;;;;;;5063223;28;20052;-77
2023/05/17 02:11:37;;;;;;;5.47;3.85;;;10.10;99.90;;;;;;5061917;28;20085;-77
2023/05/17 02:14:03;;;;;;;6.68;4.22;;;10.10;99.90;;;;;;5064322;28;20021;-77
2023/05/17 02:16:28;;;;;;;4.45;3.95;;;10.10;99.90;;;;;;5063116;28;20033;-77
2023/05/17 02:18:54;;;;;;;5.78;3.72;;;10.00;99.90;;;;;;5066858;28;20466;-77
2023/05/17 02:21:19;;;;;;;8.20;3.42;;;10.00;99.90;;;;;;5066062;28;20365;-77
2023/05/17 02:23:45;;;;;;;4.35;3.80;;;10.00;99.90;;;;;;5066824;28;20100;-77
2023/05/17 02:26:11;;;;;;;4.35;3.95;;;10.00;99.90;;;;;;5067566;28;20036;-77
2023/05/17 02:28:36;;;;;;;6.28;4.22;;;10.00;99.90;;;;;;5066886;28;20036;-77
2023/05/17 02:31:02;;;;;;;4.25;3.85;;;10.00;99.90;;;;;;5066501;28;20087;-77
2023/05/17 02:33:27;;;;;;;6.70;4.53;;;10.00;99.90;;;;;;5065024;28;20024;-77
2023/05/17 02:35:53;;;;;;;4.68;3.90;;;10.00;99.90;;;;;;5066564;28;20037;-77
2023/05/17 02:38:19;;;;;;;6.88;4.38;;;10.00;99.90;;;;;;5066151;28;20372;-77
2023/05/17 02:40:44;;;;;;;4.57;4.18;;;9.90;99.90;;;;;;5065716;28;20120;-77
2023/05/17 02:43:10;;;;;;;5.20;3.88;;;9.90;99.90;;;;;;5066507;28;20013;-77
2023/05/17 02:45:35;;;;;;;6.20;4.82;;;9.90;99.90;;;;;;5066522;28;20037;-77
2023/05/17 02:48:01;;;;;;;6.28;4.65;;;9.90;99.90;;;;;;5066148;28;20029;-77
2023/05/17 02:50:27;;;;;;;7.85;4.95;;;9.90;99.90;;;;;;5065565;28;20025;-77
2023/05/17 02:52:52;;;;;;;7.53;4.38;;;9.90;99.90;;;;;;5065602;28;20021;-77
2023/05/17 02:55:18;;;;;;;6.15;5.00;;;9.90;99.90;;;;;;5064007;28;20045;-77
2023/05/17 02:57:43;;;;;;;6.03;5.15;;;9.80;99.90;;;;;;5064116;28;20021;-77
2023/05/17 03:00:09;;;;;;;6.05;5.10;;;9.90;99.90;;;;;;5065136;28;20475;-77
2023/05/17 03:02:35;;;;;;;6.70;5.72;;;9.90;99.90;;;;;;5065498;28;20021;-77
2023/05/17 03:05:01;;;;;;;6.72;5.25;;;9.80;99.90;;;;;;5065252;28;20021;-77
2023/05/17 03:07:26;;;;;;;7.28;5.95;;;9.80;99.90;;;;;;5065221;28;20052;-78
2023/05/17 03:09:52;;;;;;;8.23;5.28;;;9.80;99.90;;;;;;5063070;28;20028;-77
2023/05/17 03:12:17;;;;;;;8.90;5.88;;;9.80;99.90;;;;;;5064663;28;20379;-77
2023/05/17 03:14:43;;;;;;;7.85;5.80;;;9.70;99.90;;;;;;5065061;28;20032;-77
2023/05/17 03:17:09;;;;;;;9.23;5.72;;;9.70;99.90;;;;;;5065239;28;20102;-77
2023/05/17 03:19:34;;;;;;;7.55;5.70;;;9.70;99.90;;;;;;5064326;28;20032;-77
2023/05/17 03:22:00;;;;;;;5.95;5.35;;;9.60;99.90;;;;;;5064820;28;20032;-77
2023/05/17 03:24:25;;;;;;;7.43;6.28;;;9.60;99.90;;;;;;5066252;28;20036;-77
2023/05/17 03:26:51;;;;;;;9.13;6.32;;;9.60;99.90;;;;;;5065980;28;20087;-77
2023/05/17 03:29:17;;;;;;;8.68;5.63;;;9.60;99.90;;;;;;5065472;28;20021;-77
2023/05/17 03:31:42;;;;;;;9.10;5.85;;;9.60;99.90;;;;;;5064825;28;20056;-77
2023/05/17 03:34:08;;;;;;;9.40;5.53;;;9.60;99.90;;;;;;5065183;28;20021;-76
2023/05/17 03:36:34;;;;;;;9.93;6.07;;;9.50;99.90;;;;;;5065310;28;20025;-77
2023/05/17 03:39:00;;;;;;;8.23;6.30;;;9.50;99.90;;;;;;5066220;28;20025;-77
2023/05/17 03:41:25;;;;;;;9.38;6.55;;;9.50;99.90;;;;;;5065166;28;20119;-76
2023/05/17 03:43:51;;;;;;;8.18;5.93;;;9.50;99.90;;;;;;5064401;28;20024;-76
2023/05/17 03:46:17;;;;;;;10.02;6.15;;;9.50;99.90;;;;;;5064295;28;20036;-76
2023/05/17 03:48:42;;;;;;;9.85;6.53;;;9.50;99.90;;;;;;5064665;28;20029;-76
2023/05/17 03:51:08;;;;;;;8.20;5.60;;;9.50;99.90;;;;;;5064428;28;20021;-77
2023/05/17 03:53:39;;;;;;;6.30;5.57;;;9.50;99.90;;;;;;5065845;28;20029;-77
2023/05/17 03:56:05;;;;;;;8.35;5.72;;;9.50;99.90;;;;;;5065202;28;20109;-77
2023/05/17 03:58:31;;;;;;;9.77;6.68;;;9.40;99.90;;;;;;5065147;28;20021;-76
2023/05/17 04:00:56;;;;;;;7.00;5.90;;;9.40;99.90;;;;;;5063665;28;20028;-77
2023/05/17 04:03:22;;;;;;;9.07;5.65;;;9.40;99.90;;;;;;5064542;28;20128;-77
2023/05/17 04:05:47;;;;;;;8.88;5.28;;;9.40;99.90;;;;;;5064895;28;20471;-77
2023/05/17 04:08:13;;;;;;;7.07;5.50;;;9.30;99.90;;;;;;5062176;28;20020;-78
2023/05/17 04:10:40;;;;;;;10.32;5.85;;;9.30;99.90;;;;;;5063712;28;20025;-77
2023/05/17 04:13:09;;;;;;;9.65;6.65;;;9.30;99.90;;;;;;5064042;28;20048;-76
2023/05/17 04:15:35;;;;;;;8.55;6.03;;;9.20;99.90;;;;;;5063152;28;20029;-75
2023/05/17 04:18:01;;;;;;;10.10;6.30;;;9.20;99.90;;;;;;5062488;28;20034;-76
2023/05/17 04:20:27;;;;;;;8.73;5.68;;;9.20;99.90;;;;;;5063587;28;20025;-78
2023/05/17 04:22:52;;;;;;;8.25;5.47;;;9.20;99.90;;;;;;5062432;28;20017;-78
2023/05/17 04:25:18;;;;;;;12.80;5.15;;;9.10;99.90;;;;;;5062400;28;20471;-78
2023/05/17 04:27:45;;;;;;;9.23;5.28;;;9.10;99.90;;;;;;5060657;28;20021;-74
2023/05/17 04:30:11;;;;;;;11.23;5.50;;;9.00;99.90;;;;;;5061857;28;20020;-76
2023/05/17 04:32:37;;;;;;;9.52;5.72;;;9.00;99.90;;;;;;5062545;28;20017;-75
2023/05/17 04:35:04;;;;;;;8.77;5.43;;;9.00;99.90;;;;;;5060857;28;20027;-76
2023/05/17 04:37:29;;;;;;;9.10;5.43;;;9.00;99.90;;;;;;5061803;28;20067;-76
2023/05/17 04:39:55;;;;;;;11.10;5.80;;;9.00;99.90;;;;;;5061017;28;20388;-77
2023/05/17 04:42:21;;;;;;;11.20;6.95;;;8.90;99.90;;;;;;5059753;28;20425;-75
2023/05/17 04:44:46;;;;;;;8.63;5.45;;;8.90;99.90;;;;;;5061799;28;20013;-77
2023/05/17 04:47:12;;;;;;;12.55;5.43;;;8.90;99.90;;;;;;5059723;28;20058;-77
2023/05/17 04:49:38;;;;;;;10.15;5.88;;;8.80;99.90;;;;;;5062470;28;20027;-78
2023/05/17 04:52:04;;;;;;;9.65;4.70;;;8.80;99.90;;;;;;5061900;28;20025;-80
2023/05/17 04:54:29;;;;;;;6.18;4.43;;;8.80;99.90;;;;;;5061932;28;20463;-78
2023/05/17 04:56:55;;;;;;;8.38;5.32;;;8.70;99.90;;;;;;5060014;28;20025;-77
2023/05/17 04:59:21;;;;;;;9.20;5.22;;;8.70;99.90;;;;;;5061915;28;20090;-76
2023/05/17 05:01:46;;;;;;;9.93;4.75;;;8.70;99.90;;;;;;5064250;28;20033;-77
2023/05/17 05:04:12;;;;;;;10.77;4.93;;;8.60;99.90;;;;;;5062100;28;20017;-77
2023/05/17 05:06:37;;;;;;;9.45;4.72;;;8.60;99.90;;;;;;5062314;28;20036;-78
2023/05/17 05:09:03;;;;;;;9.13;4.32;;;8.60;99.90;;;;;;5062560;28;20064;-78
2023/05/17 05:11:30;;;;;;;11.52;4.65;;;8.60;99.90;;;;;;5059908;28;20025;-78
2023/05/17 05:13:56;;;;;;;9.43;5.00;;;8.60;99.90;;;;;;5061195;28;20027;-78
2023/05/17 05:16:23;;;;;;;8.70;4.57;;;8.60;99.90;;;;;;5061802;28;20119;-78
2023/05/17 05:18:49;;;;;;;10.25;5.55;;;8.60;99.90;;;;;;5061634;28;20021;-77
2023/05/17 05:21:15;;;;;;;10.13;4.43;;;;;;;;;;5061021;28;20024;-78
2023/05/17 05:23:40;;;;;;;11.60;4.70;;;8.60;99.90;;;;;;5061891;28;20103;-78
2023/05/17 05:26:06;;;;;;;10.32;5.20;;;8.50;99.90;;;;;;5063494;28;20405;-78
2023/05/17 05:28:32;;;;;;;8.95;4.85;;;8.50;99.90;;;;;;5060337;28;20461;-78
2023/05/17 05:30:59;;;;;;;10.23;4.10;;;8.50;99.90;;;;;;5061347;28;20032;-77
2023/05/17 05:33:25;;;;;;;14.75;4.57;;;8.50;99.90;;;;;;5060479;28;20178;-78
2023/05/17 05:35:50;;;;;;;12.15;4.28;;;8.50;99.90;;;;;;5060350;28;20471;-78
2023/05/17 05:38:16;;;;;;;11.05;4.70;;;8.50;99.90;;;;;;5061407;28;20020;-78
2023/05/17 05:40:42;;;;;;;5.47;4.20;;;8.40;99.90;;;;;;5060069;28;20029;-78
2023/05/17 05:43:07;;;;;;;8.10;4.43;;;8.40;99.90;;;;;;5059661;28;20051;-78
2023/05/17 05:45:33;;;;;;;10.20;5.45;;;8.40;99.90;;;;;;5060750;28;20449;-77
2023/05/17 05:47:59;;;;;;;10.85;4.38;;;8.40;99.90;;;;;;5060783;28;20448;-78
2023/05/17 05:50:24;;;;;;;8.23;5.25;;;8.40;99.90;;;;;;5062172;28;20032;-78
2023/05/17 05:52:50;;;;;;;12.50;5.25;;;8.40;99.90;;;;;;5062270;28;20029;-78
2023/05/17 05:55:15;;;;;;;10.27;5.30;;;8.40;99.90;;;;;;5062279;28;20053;-78
2023/05/17 05:57:41;;;;;;;10.90;5.72;;;8.40;99.90;;;;;;5062823;28;20048;-78
2023/05/17 06:00:07;;;;;;;13.65;6.43;;;8.40;99.90;;;;;;5062136;28;20021;-78
2023/05/17 06:02:33;;;;;;;18.15;7.13;;;8.40;99.90;;;;;;5060522;28;20476;-78
2023/05/17 06:04:59;;;;;;;12.43;6.03;;;8.40;99.90;;;;;;5060888;28;20029;-78
2023/05/17 06:07:24;;;;;;;11.52;6.72;;;8.40;99.90;;;;;;5060356;28;20025;-77
2023/05/17 06:09:50;;;;;;;14.43;7.10;;;8.40;99.90;;;;;;5060018;28;20043;-78
2023/05/17 06:12:16;;;;;;;11.45;6.90;;;8.40;99.90;;;;;;5059482;28;20025;-77
2023/05/17 06:14:42;;;;;;;8.45;6.30;;;8.50;99.90;;;;;;5060615;28;20031;-78
2023/05/17 06:17:07;;;;;;;14.20;6.60;;;8.50;99.90;;;;;;5061098;28;20123;-78
2023/05/17 06:19:33;;;;;;;13.05;7.65;;;8.50;99.90;;;;;;5059708;28;20028;-77
2023/05/17 06:21:59;;;;;;;13.55;6.72;;;8.50;99.90;;;;;;5058932;28;20063;-78
2023/05/17 06:24:24;;;;;;;10.40;6.65;;;8.50;99.90;;;;;;5059112;28;20035;-78
2023/05/17 06:26:50;;;;;;;12.73;7.05;;;8.60;99.90;;;;;;5060061;28;20028;-77
2023/05/17 06:29:15;;;;;;;14.27;7.47;;;8.60;99.90;;;;;;5059588;28;20013;-78
2023/05/17 06:31:41;;;;;;;13.95;7.78;;;8.60;99.90;;;;;;5060322;28;20033;-77
2023/05/17 06:34:07;;;;;;;13.63;7.53;;;8.50;99.90;;;;;;5057953;28;20029;-78
2023/05/17 06:36:33;;;;;;;10.40;7.30;;;8.60;99.90;;;;;;5060045;28;20034;-78
2023/05/17 06:38:59;;;;;;;9.70;7.32;;;8.60;99.90;;;;;;5061460;28;20032;-79
2023/05/17 06:41:25;;;;;;;16.08;8.23;;;8.60;99.90;;;;;;5060703;28;20021;-78
2023/05/17 06:43:50;;;;;;;15.57;8.95;;;8.60;99.90;;;;;;5060250;28;20372;-78
2023/05/17 06:46:16;;;;;;;10.70;7.43;;;8.60;99.90;;;;;;5060139;28;20020;-77
2023/05/17 06:48:42;;;;;;;11.48;7.13;;;8.60;99.90;;;;;;5059429;28;20100;-79
2023/05/17 06:51:07;;;;;;;14.35;8.10;;;8.60;99.90;;;;;;5058606;28;20095;-78
2023/05/17 06:53:33;;;;;;;17.45;8.18;;;8.60;99.90;;;;;;5060101;28;20314;-78
2023/05/17 06:55:59;;;;;;;15.13;8.15;;;8.60;99.90;;;;;;5062684;28;20041;-78
2023/05/17 06:58:25;;;;;;;10.38;7.07;;;8.70;99.90;;;;;;5064921;28;20036;-79
2023/05/17 07:00:50;;;;;;;25.30;9.27;;;8.60;99.90;;;;;;5066535;28;20017;-78
2023/05/17 07:03:16;;;;;;;14.35;8.32;;;8.60;99.90;;;;;;5066685;28;20027;-78
2023/05/17 07:05:42;;;;;;;19.00;8.93;;;8.60;99.90;;;;;;5068364;28;20020;-78
2023/05/17 07:08:07;;;;;;;19.88;9.18;;;8.60;99.90;;;;;;5067881;28;20048;-78
2023/05/17 07:10:33;;;;;;;15.02;9.30;;;8.60;99.90;;;;;;5065822;28;20044;-78
2023/05/17 07:12:59;;;;;;;15.93;10.07;;;8.60;99.90;;;;;;5066154;28;20021;-78
2023/05/17 07:15:24;;;;;;;13.18;9.32;;;8.70;99.90;;;;;;5066478;28;20033;-78
2023/05/17 07:17:50;;;;;;;20.30;11.07;;;8.70;99.90;;;;;;5065648;28;20020;-79
2023/05/17 07:20:16;;;;;;;18.77;10.13;;;8.70;99.90;;;;;;5064936;28;20112;-78
2023/05/17 07:22:42;;;;;;;16.17;10.38;;;8.70;99.90;;;;;;5065039;28;20111;-78
2023/05/17 07:25:08;;;;;;;16.83;9.60;;;8.70;99.90;;;;;;5066572;28;20047;-78
2023/05/17 07:27:33;;;;;;;15.35;9.07;;;8.70;99.90;;;;;;5066755;28;20021;-78
2023/05/17 07:30:00;;;;;;;13.10;9.18;;;8.70;99.90;;;;;;5065420;28;20021;-78
2023/05/17 07:32:25;;;;;;;16.80;9.05;;;8.80;99.90;;;;;;5064160;28;20063;-78
2023/05/17 07:34:51;;;;;;;12.60;9.07;;;8.80;99.90;;;;;;5062676;28;20025;-77
2023/05/17 07:37:17;;;;;;;13.48;9.07;;;8.80;99.90;;;;;;5064996;28;20032;-78
2023/05/17 07:39:42;;;;;;;13.88;9.73;;;8.80;99.90;;;;;;5064009;28;20025;-77
2023/05/17 07:42:08;;;;;;;12.52;9.88;;;8.80;99.90;;;;;;5062994;28;20024;-78
2023/05/17 07:44:33;;;;;;;17.83;8.35;;;8.80;99.90;;;;;;5063923;28;20025;-78
2023/05/17 07:46:59;;;;;;;16.02;8.23;;;8.80;99.90;;;;;;5062946;28;20103;-78
2023/05/17 07:49:26;;;;;;;10.88;8.98;;;8.80;99.90;;;;;;5062526;28;20027;-78
2023/05/17 07:51:52;;;;;;;13.95;9.00;;;8.80;99.90;;;;;;5060884;28;20025;-78
2023/05/17 07:54:26;;;;;;;19.67;9.57;;;8.80;99.90;;;;;;5063112;28;20111;-77
2023/05/17 07:56:54;;;;;;;13.30;8.02;;;8.80;99.90;;;;;;5063198;28;20029;-78
2023/05/17 07:59:20;;;;;;;13.88;8.32;;;8.80;99.90;;;;;;5062998;28;20016;-78
2023/05/17 08:01:46;;;;;;;15.18;8.68;;;8.80;99.90;;;;;;5061950;28;20372;-78
2023/05/17 08:04:13;;;;;;;12.85;6.90;;;8.80;99.90;;;;;;5062695;28;20017;-78
2023/05/17 08:06:39;;;;;;;16.30;7.57;;;8.70;99.90;;;;;;5063289;28;20021;-78
2023/05/17 08:09:05;;;;;;;11.25;7.43;;;8.80;99.90;;;;;;5063781;28;20032;-78
2023/05/17 08:11:33;;;;;;;13.15;7.40;;;8.80;99.90;;;;;;5063231;28;20025;-78
2023/05/17 08:13:59;;;;;;;14.13;7.97;;;8.90;99.90;;;;;;5064103;28;20036;-78
2023/05/17 08:16:25;;;;;;;11.38;6.90;;;8.90;99.90;;;;;;5063701;28;20029;-78
2023/05/17 08:18:50;;;;;;;14.07;6.75;;;8.90;99.90;;;;;;5064188;28;20456;-77
2023/05/17 08:21:16;;;;;;;11.80;6.00;;;8.90;99.90;;;;;;5063633;28;20078;-78
2023/05/17 08:23:43;;;;;;;12.40;7.22;;;8.80;99.90;;;;;;5063320;28;20070;-78
2023/05/17 08:26:08;;;;;;;12.00;5.68;;;8.80;99.90;;;;;;5063282;28;20033;-78
2023/05/17 08:28:34;;;;;;;8.52;5.82;;;8.80;99.90;;;;;;5063776;28;20032;-78
2023/05/17 08:31:00;;;;;;;11.43;5.80;;;8.80;99.90;;;;;;5062609;28;20025;-78
2023/05/17 08:33:26;;;;;;;9.82;4.60;;;8.80;99.90;;;;;;5063351;28;20135;-78
2023/05/17 08:35:54;;;;;;;8.75;5.18;;;8.80;99.90;;;;;;5063795;28;20085;-78
2023/05/17 08:38:20;;;;;;;8.25;5.57;;;8.80;99.90;;;;;;5063582;28;20444;-78
2023/05/17 08:40:53;;;;;;;13.82;6.68;;;8.80;99.90;;;;;;5061649;28;20063;-78
2023/05/17 08:43:20;;;;;;;12.50;5.55;;;8.80;99.90;;;;;;5062193;28;20079;-78
2023/05/17 08:45:48;;;;;;;12.77;5.15;;;8.80;99.90;;;;;;5061460;28;20452;-78
2023/05/17 08:48:16;;;;;;;8.60;4.72;;;8.80;99.90;;;;;;5062124;28;20017;-77
2023/05/17 08:50:43;;;;;;;8.98;4.85;;;8.80;99.90;;;;;;5061746;28;20044;-78
2023/05/17 08:53:10;;;;;;;8.35;4.47;;;8.70;99.90;;;;;;5058836;28;20436;-78
2023/05/17 08:55:37;;;;;;;12.15;5.15;;;8.70;99.90;;;;;;5061581;28;20051;-78
2023/05/17 08:58:05;;;;;;;9.63;4.95;;;8.60;99.90;;;;;;5062087;28;20025;-78
2023/05/17 09:00:32;;;;;;;12.25;5.07;;;8.70;99.90;;;;;;5060693;28;20075;-78
2023/05/17 09:03:01;;;;;;;12.75;5.35;;;8.70;99.90;;;;;;5060395;28;20429;-78
2023/05/17 09:05:27;;;;;;;8.93;4.80;;;8.60;99.90;;;;;;5059303;28;20027;-78
2023/05/17 09:07:54;;;;;;;8.30;4.40;;;8.70;99.90;;;;;;5058834;28;20382;-78
2023/05/17 09:10:20;;;;;;;8.13;4.57;;;8.70;99.90;;;;;;5059480;28;20023;-78
2023/05/17 09:12:46;;;;;;;8.18;4.45;;;8.70;99.90;;;;;;5058306;28;20361;-78
2023/05/17 09:15:16;;;;;;;6.38;4.57;;;8.70;99.90;;;;;;5061832;28;20547;-77
2023/05/17 09:17:49;;;;;;;11.95;4.93;;;8.70;99.90;;;;;;5061396;28;20017;-76
2023/05/17 09:20:38;;;;;;;8.10;4.95;;;8.70;99.90;;;;;;5063934;28;20021;-77
2023/05/17 09:23:06;;;;;;;8.45;4.45;;;8.70;99.90;;;;;;5059910;28;20021;-78
2023/05/17 09:25:32;;;;;;;6.65;4.28;;;8.70;99.90;;;;;;5062315;28;20032;-78
2023/05/17 09:28:02;;;;;;;10.93;4.85;;;8.80;99.90;;;;;;5061112;28;20023;-78
2023/05/17 09:30:29;;;;;;;7.18;3.75;;;8.80;99.90;;;;;;5060920;28;20035;-78
2023/05/17 09:32:56;;;;;;;11.88;4.10;;;8.70;99.90;;;;;;5062273;28;20017;-78
2023/05/17 09:35:31;;;;;;;9.98;3.95;;;8.70;99.90;;;;;;5061465;28;20071;-76
2023/05/17 09:38:06;;;;;;;8.60;4.20;;;8.70;99.90;;;;;;5063441;28;20071;-77
2023/05/17 09:40:33;;;;;;;10.23;4.00;;;8.70;99.90;;;;;;5063144;28;20033;-77
2023/05/17 09:42:58;;;;;;;9.98;3.80;;;8.70;99.90;;;;;;5061762;28;20017;-78
2023/05/17 09:45:25;;;;;;;8.88;3.90;;;8.70;99.90;;;;;;5061485;28;20037;-77
2023/05/17 09:47:51;;;;;;;8.40;3.85;;;8.70;99.90;;;;;;5061738;28;20021;-77
2023/05/17 09:50:20;;;;;;;8.15;3.83;;;8.70;99.90;;;;;;5060547;28;20028;-77
2023/05/17 09:52:46;;;;;;;7.18;3.95;;;8.70;99.90;;;;;;5051760;28;20083;-78
2023/05/17 09:55:12;;;;;;;8.38;4.05;;;8.80;99.90;;;;;;5061840;28;20481;-78
2023/05/17 09:57:39;;;;;;;5.72;3.42;;;8.80;99.90;;;;;;5060098;28;20094;-78
2023/05/17 10:00:10;;;;;;;7.43;3.90;;;8.70;99.90;;;;;;5062019;28;20133;-78
2023/05/17 10:02:37;;;;;;;8.25;4.00;;;8.80;99.90;;;;;;5059148;28;20040;-78
2023/05/17 10:05:07;;;;;;;8.20;3.92;;;8.80;99.90;;;;;;5061302;28;20071;-77
2023/05/17 10:07:33;;;;;;;7.97;4.45;;;8.80;99.90;;;;;;5061042;28;20108;-77
2023/05/17 10:10:00;;;;;;;10.98;3.97;;;8.90;99.90;;;;;;5061318;28;20024;-77
2023/05/17 10:12:30;;;;;;;7.63;3.47;;;8.90;99.90;;;;;;5058870;28;20025;-77
2023/05/17 10:14:58;;;;;;;9.32;4.47;;;8.90;99.90;;;;;;5057610;28;20037;-77
2023/05/17 10:17:28;;;;;;;5.30;3.60;;;9.00;99.90;;;;;;5057891;28;20094;-77
2023/05/17 10:19:54;;;;;;;9.00;3.65;;;9.00;99.90;;;;;;5059877;28;20040;-77
2023/05/17 10:22:21;;;;;;;6.22;3.38;;;9.00;99.90;;;;;;5058982;28;20025;-77
2023/05/17 10:24:48;;;;;;;6.57;3.63;;;9.00;99.90;;;;;;5055057;28;20468;-77
2023/05/17 10:27:15;;;;;;;10.32;3.40;;;9.00;99.90;;;;;;5038000;28;20036;-77
2023/05/17 10:29:42;;;;;;;5.40;3.60;;;9.00;99.90;;;;;;5055384;28;20025;-77
2023/05/17 10:32:09;;;;;;;7.20;3.85;;;;;;;;;;5057222;28;20029;-76
2023/05/17 10:34:36;;;;;;;6.32;3.50;;;9.10;99.90;;;;;;5057406;28;20049;-77
2023/05/17 10:37:03;;;;;;;6.05;4.10;;;9.00;99.90;;;;;;5057302;28;20439;-77
2023/05/17 10:39:32;;;;;;;7.80;3.17;;;9.00;99.90;;;;;;5062263;28;20061;-77
2023/05/17 10:42:01;;;;;;;6.93;3.80;;;9.10;99.90;;;;;;5061807;28;20048;-78
2023/05/17 10:44:30;;;;;;;5.18;3.35;;;9.10;99.90;;;;;;5061850;28;20052;-76
2023/05/17 10:46:56;;;;;;;5.07;3.65;;;9.00;99.90;;;;;;5060898;28;20120;-76
2023/05/17 10:49:30;;;;;;;6.65;4.03;;;9.00;99.90;;;;;;5064858;28;20025;-77
2023/05/17 10:52:11;;;;;;;6.63;3.78;;;9.00;99.90;;;;;;5066377;28;20548;-77
2023/05/17 10:54:40;;;;;;;9.02;3.67;;;9.10;99.90;;;;;;5063826;28;20082;-77
2023/05/17 10:57:06;;;;;;;7.20;4.15;;;9.10;99.90;;;;;;5061878;28;20037;-77
2023/05/17 10:59:32;;;;;;;6.82;3.60;;;9.10;99.90;;;;;;5064823;28;20036;-77
2023/05/17 11:02:03;;;;;;;8.55;3.45;;;9.20;99.90;;;;;;5064745;28;20105;-77
2023/05/17 11:04:36;;;;;;;12.23;4.50;;;9.20;99.90;;;;;;5065120;28;20076;-77
2023/05/17 11:07:20;;;;;;;5.70;3.17;;;9.20;99.90;;;;;;5066170;28;20083;-77
2023/05/17 11:10:11;;;;;;;7.32;3.97;;;9.20;99.90;;;;;;5064105;28;20029;-78
2023/05/17 11:12:37;;;;;;;7.38;2.97;;;9.10;99.90;;;;;;5063510;28;20025;-77
2023/05/17 11:15:10;;;;;;;4.88;3.15;;;9.00;99.90;;;;;;5063831;28;20029;-78
2023/05/17 11:17:50;;;;;;;5.97;3.05;;;9.00;99.90;;;;;;5063964;28;20033;-77
2023/05/17 11:20:25;;;;;;;10.15;3.28;;;8.90;99.90;;;;;;5063868;28;20029;-77
2023/05/17 11:23:05;;;;;;;8.77;3.65;;;8.90;99.90;;;;;;5065414;28;20081;-77
2023/05/17 11:25:35;;;;;;;6.30;3.15;;;8.90;99.90;;;;;;5065204;28;20025;-77
2023/05/17 11:28:20;;;;;;;9.70;3.47;;;8.90;99.90;;;;;;5065729;28;20025;-77
2023/05/17 11:30:50;;;;;;;11.23;3.33;;;9.00;99.90;;;;;;5063503;28;20049;-77
2023/05/17 11:33:16;;;;;;;7.28;4.13;;;8.90;99.90;;;;;;5064311;28;20032;-74
2023/05/17 11:35:43;;;;;;;8.90;3.42;;;8.90;99.90;;;;;;5061871;28;20034;-75
2023/05/17 11:38:19;;;;;;;4.60;2.90;;;8.90;99.90;;;;;;5062166;28;20119;-74
2023/05/17 11:40:52;;;;;;;10.05;3.15;;;8.90;99.90;;;;;;5062512;28;20053;-75
2023/05/17 11:43:22;;;;;;;4.18;2.53;;;8.90;99.90;;;;;;5062056;28;20136;-74
2023/05/17 11:45:54;;;;;;;4.68;3.80;;;8.80;99.90;;;;;;5062377;28;20040;-75
2023/05/17 11:48:22;;;;;;;8.18;3.13;;;8.90;99.90;;;;;;5060590;28;20051;-74
2023/05/17 11:50:49;;;;;;;7.97;3.40;;;8.80;99.90;;;;;;5061287;28;20064;-75
2023/05/17 11:53:16;;;;;;;4.40;3.72;;;8.80;99.90;;;;;;5058779;28;20031;-75
2023/05/17 11:55:47;;;;;;;8.10;4.18;;;8.90;99.90;;;;;;5059772;28;20056;-75
2023/05/17 11:58:14;;;;;;;7.00;4.45;;;8.90;99.90;;;;;;5063907;28;20025;-76
2023/05/17 12:00:41;;;;;;;8.50;4.50;;;8.90;99.90;;;;;;5062505;28;20096;-77
2023/05/17 12:03:18;;;;;;;6.95;3.97;;;9.00;99.90;;;;;;5064449;28;20055;-78
2023/05/17 12:05:44;;;;;;;7.07;3.50;;;9.00;99.90;;;;;;5062543;28;20113;-75
2023/05/17 12:08:10;;;;;;;10.27;4.55;;;9.00;99.90;;;;;;5063343;28;20067;-74
2023/05/17 12:10:36;;;;;;;9.18;4.25;;;9.00;99.90;;;;;;5063512;28;20025;-74
2023/05/17 12:13:02;;;;;;;13.05;4.93;;;9.10;99.90;;;;;;5062402;28;20036;-76
2023/05/17 12:15:30;;;;;;;7.78;4.32;;;9.10;99.90;;;;;;5062884;28;20025;-76
2023/05/17 12:17:56;;;;;;;10.63;3.60;;;9.20;99.90;;;;;;5061199;28;20100;-75
2023/05/17 12:20:21;;;;;;;6.10;3.03;;;9.10;99.90;;;;;;5061905;28;20079;-75
2023/05/17 12:22:53;;;;;;;8.13;4.28;;;9.00;99.90;;;;;;5061687;28;20031;-75
2023/05/17 12:25:23;;;;;;;7.95;3.60;;;9.00;99.90;;;;;;5063311;28;20025;-75
2023/05/17 12:27:53;;;;;;;6.40;4.20;;;8.90;99.90;;;;;;5062279;28;20031;-74
2023/05/17 12:30:19;;;;;;;5.45;4.15;;;8.90;99.90;;;;;;5062541;28;20342;-74
2023/05/17 12:32:46;;;;;;;9.07;4.35;;;8.90;99.90;;;;;;5059956;28;20392;-75
2023/05/17 12:35:12;;;;;;;9.90;4.18;;;9.00;99.90;;;;;;5062558;28;20099;-73
2023/05/17 12:37:38;;;;;;;9.63;4.30;;;8.90;99.90;;;;;;5062834;28;20049;-73
2023/05/17 12:40:04;;;;;;;9.60;3.92;;;8.90;99.90;;;;;;5061582;28;20029;-74
2023/05/17 12:42:31;;;;;;;9.68;4.28;;;8.90;99.90;;;;;;5060438;28;20032;-74
2023/05/17 12:45:00;;;;;;;11.70;4.50;;;8.90;99.90;;;;;;5060463;28;20071;-74
2023/05/17 12:47:30;;;;;;;7.22;4.43;;;8.80;99.90;;;;;;5060723;28;20076;-75
2023/05/17 12:49:58;;;;;;;8.63;5.30;;;8.80;99.90;;;;;;5063253;28;20108;-74
2023/05/17 12:52:24;;;;;;;7.63;5.75;;;8.80;99.90;;;;;;5060877;28;20029;-74